createdAt,value
2018-04-07T00:00:07.609Z,1.60
2018-04-07T00:02:34.548Z,1.50
2018-04-07T00:05:01.289Z,2.17
2018-04-07T00:07:28.037Z,1.77
2018-04-07T00:09:54.761Z,1.60
2018-04-07T00:12:21.467Z,1.93
2018-04-07T00:14:48.169Z,2.17
2018-04-07T00:17:14.869Z,2.27
2018-04-07T00:19:41.569Z,1.90
2018-04-07T00:22:08.310Z,1.80
2018-04-07T00:24:35.006Z,2.10
2018-04-07T00:27:01.705Z,2.07
2018-04-07T00:29:28.438Z,1.60
2018-04-07T00:31:55.141Z,2.77
2018-04-07T00:34:21.865Z,2.40
2018-04-07T00:36:48.576Z,3.20
2018-04-07T00:39:15.277Z,3.60
2018-04-07T00:41:41.982Z,1.20
2018-04-07T00:44:08.723Z,1.50
2018-04-07T00:46:35.459Z,2.40
2018-04-07T00:49:02.159Z,1.70
2018-04-07T00:51:28.864Z,1.63
2018-04-07T00:53:55.570Z,3.90
2018-04-07T00:56:22.270Z,1.60
2018-04-07T00:58:48.985Z,1.70
2018-04-07T01:01:15.815Z,2.13
2018-04-07T01:03:42.658Z,1.53
2018-04-07T01:06:09.365Z,2.07
2018-04-07T01:08:36.061Z,1.40
2018-04-07T01:11:02.792Z,1.50
2018-04-07T01:13:29.489Z,2.00
2018-04-07T01:15:56.191Z,1.60
2018-04-07T01:18:22.893Z,1.80
2018-04-07T01:20:49.593Z,1.70
2018-04-07T01:23:16.313Z,1.60
2018-04-07T01:25:43.042Z,1.70
2018-04-07T01:28:09.752Z,1.77
2018-04-07T01:30:36.446Z,1.40
2018-04-07T01:33:03.331Z,2.33
2018-04-07T01:35:30.053Z,2.23
2018-04-07T01:37:56.757Z,1.60
2018-04-07T01:40:23.457Z,1.50
2018-04-07T01:42:50.360Z,3.33
2018-04-07T01:45:17.053Z,1.40
2018-04-07T01:47:43.795Z,4.00
2018-04-07T01:50:10.497Z,1.77
2018-04-07T01:52:37.193Z,1.30
2018-04-07T01:55:03.893Z,1.27
2018-04-07T01:57:30.596Z,1.70
2018-04-07T01:59:57.312Z,1.40
2018-04-07T02:02:24.025Z,1.20
2018-04-07T02:04:50.724Z,1.63
2018-04-07T02:07:17.419Z,1.60
2018-04-07T02:09:44.125Z,1.90
2018-04-07T02:12:10.969Z,1.70
2018-04-07T02:14:37.680Z,1.83
2018-04-07T02:17:04.376Z,2.60
2018-04-07T02:19:31.097Z,1.83
2018-04-07T02:21:57.814Z,1.43
2018-04-07T02:24:24.504Z,2.83
2018-04-07T02:26:51.203Z,1.70
2018-04-07T02:29:17.900Z,1.20
2018-04-07T02:31:44.623Z,3.43
2018-04-07T02:34:11.323Z,1.60
2018-04-07T02:36:38.038Z,4.53
2018-04-07T02:39:05.435Z,2.17
2018-04-07T02:41:32.133Z,1.87
2018-04-07T02:43:58.858Z,3.33
2018-04-07T02:46:25.557Z,1.60
2018-04-07T02:48:52.272Z,1.53
2018-04-07T02:51:18.977Z,1.60
2018-04-07T02:53:45.685Z,1.37
2018-04-07T02:56:12.422Z,2.67
2018-04-07T02:58:39.131Z,2.97
2018-04-07T03:01:05.850Z,1.57
2018-04-07T03:03:32.566Z,4.53
2018-04-07T03:05:59.260Z,6.00
2018-04-07T03:08:25.998Z,1.53
2018-04-07T03:10:52.700Z,7.17
2018-04-07T03:13:19.420Z,1.40
2018-04-07T03:15:46.204Z,1.73
2018-04-07T03:18:12.908Z,1.33
2018-04-07T03:20:39.613Z,2.10
2018-04-07T03:23:06.307Z,1.10
2018-04-07T03:25:32.996Z,1.10
2018-04-07T03:27:59.697Z,1.43
2018-04-07T03:30:26.418Z,1.90
2018-04-07T03:32:53.218Z,1.10
2018-04-07T03:35:19.925Z,1.47
2018-04-07T03:37:46.654Z,1.37
2018-04-07T03:40:13.348Z,1.30
2018-04-07T03:42:40.061Z,1.20
2018-04-07T03:45:06.785Z,1.43
2018-04-07T03:47:33.484Z,2.20
2018-04-07T03:50:00.208Z,1.33
2018-04-07T03:52:26.911Z,2.20
2018-04-07T03:54:53.638Z,2.80
2018-04-07T03:57:20.366Z,1.10
2018-04-07T03:59:47.060Z,1.40
2018-04-07T04:02:13.761Z,1.40
2018-04-07T04:04:40.461Z,2.00
2018-04-07T04:07:07.159Z,1.40
2018-04-07T04:09:33.904Z,2.13
2018-04-07T04:12:00.597Z,1.30
2018-04-07T04:14:27.290Z,4.30
2018-04-07T04:16:54.192Z,1.30
2018-04-07T04:19:20.888Z,1.63
2018-04-07T04:21:47.617Z,2.83
2018-04-07T04:24:14.309Z,3.67
2018-04-07T04:26:41.015Z,1.10
2018-04-07T04:29:07.725Z,1.30
2018-04-07T04:31:34.426Z,1.40
2018-04-07T04:34:01.148Z,1.37
2018-04-07T04:36:27.849Z,1.87
2018-04-07T04:38:54.571Z,1.20
2018-04-07T04:41:21.549Z,1.20
2018-04-07T04:43:48.241Z,1.10
2018-04-07T04:46:14.969Z,1.10
2018-04-07T04:48:41.693Z,2.20
2018-04-07T04:51:08.399Z,1.40
2018-04-07T04:53:35.111Z,1.27
2018-04-07T04:56:01.814Z,1.10
2018-04-07T04:58:28.545Z,1.40
2018-04-07T05:00:55.243Z,1.93
2018-04-07T05:03:21.941Z,1.40
2018-04-07T05:05:48.641Z,1.40
2018-04-07T05:08:15.336Z,1.43
2018-04-07T05:10:42.079Z,1.23
2018-04-07T05:13:08.772Z,1.43
2018-04-07T05:15:35.642Z,1.37
2018-04-07T05:18:02.338Z,1.73
2018-04-07T05:20:29.037Z,1.87
2018-04-07T05:22:55.862Z,1.27
2018-04-07T05:25:22.560Z,1.30
2018-04-07T05:27:49.262Z,2.17
2018-04-07T05:30:15.964Z,1.50
2018-04-07T05:32:42.667Z,1.10
2018-04-07T05:35:09.395Z,1.97
2018-04-07T05:37:36.096Z,1.60
2018-04-07T05:40:02.792Z,2.13
2018-04-07T05:42:29.489Z,3.03
2018-04-07T05:44:56.246Z,1.00
2018-04-07T05:47:22.973Z,1.50
2018-04-07T05:49:49.670Z,1.93
2018-04-07T05:52:16.389Z,3.57
2018-04-07T05:54:43.137Z,1.20
2018-04-07T05:57:09.817Z,1.40
2018-04-07T05:59:39.112Z,1.33
2018-04-07T06:02:05.813Z,2.40
2018-04-07T06:04:32.508Z,3.20
2018-04-07T06:06:59.207Z,1.40
2018-04-07T06:09:25.905Z,1.40
2018-04-07T06:11:52.633Z,1.53
2018-04-07T06:14:19.346Z,1.70
2018-04-07T06:16:46.091Z,1.40
2018-04-07T06:19:12.788Z,1.80
2018-04-07T06:21:39.495Z,2.00
2018-04-07T06:24:06.229Z,1.60
2018-04-07T06:26:32.933Z,2.43
2018-04-07T06:28:59.649Z,1.50
2018-04-07T06:31:26.349Z,2.87
2018-04-07T06:33:53.048Z,1.53
2018-04-07T06:36:19.798Z,1.03
2018-04-07T06:38:46.498Z,1.77
2018-04-07T06:41:13.205Z,1.50
2018-04-07T06:43:39.905Z,2.70
2018-04-07T06:46:06.692Z,1.27
2018-04-07T06:48:33.424Z,1.40
2018-04-07T06:51:00.125Z,1.37
2018-04-07T06:53:26.826Z,2.77
2018-04-07T06:55:53.529Z,1.40
2018-04-07T06:58:20.232Z,1.50
2018-04-07T07:00:47.201Z,1.53
2018-04-07T07:03:13.902Z,1.57
2018-04-07T07:05:40.605Z,2.43
2018-04-07T07:08:07.317Z,4.60
2018-04-07T07:10:34.019Z,1.37
2018-04-07T07:13:00.737Z,2.13
2018-04-07T07:15:27.456Z,1.53
2018-04-07T07:17:54.161Z,2.23
2018-04-07T07:20:20.859Z,2.67
2018-04-07T07:22:47.559Z,1.23
2018-04-07T07:25:14.293Z,1.30
2018-04-07T07:27:40.993Z,2.70
2018-04-07T07:30:07.696Z,1.57
2018-04-07T07:32:34.429Z,1.10
2018-04-07T07:35:01.127Z,1.07
2018-04-07T07:37:27.888Z,1.30
2018-04-07T07:39:54.589Z,1.30
2018-04-07T07:42:21.293Z,2.93
2018-04-07T07:44:48.025Z,1.27
2018-04-07T07:47:14.728Z,1.10
2018-04-07T07:49:41.421Z,1.10
2018-04-07T07:52:08.128Z,0.97
2018-04-07T07:54:34.830Z,1.13
2018-04-07T07:57:01.553Z,0.90
2018-04-07T07:59:28.261Z,1.20
2018-04-07T08:01:54.957Z,1.13
2018-04-07T08:04:21.723Z,3.10
2018-04-07T08:06:48.450Z,2.00
2018-04-07T08:09:15.174Z,0.97
2018-04-07T08:11:41.873Z,0.90
2018-04-07T08:14:08.783Z,1.97
2018-04-07T08:16:35.483Z,3.27
2018-04-07T08:19:02.189Z,1.73
2018-04-07T08:21:29.103Z,1.30
2018-04-07T08:23:55.800Z,1.00
2018-04-07T08:26:22.493Z,1.90
2018-04-07T08:28:49.189Z,0.70
2018-04-07T08:31:15.910Z,2.07
2018-04-07T08:33:42.637Z,3.03
2018-04-07T08:36:09.329Z,1.10
2018-04-07T08:38:36.029Z,0.73
2018-04-07T08:41:02.726Z,0.83
2018-04-07T08:43:29.426Z,0.70
2018-04-07T08:45:56.159Z,0.80
2018-04-07T08:48:22.852Z,2.40
2018-04-07T08:50:50.363Z,0.70
2018-04-07T08:53:17.068Z,0.87
2018-04-07T08:55:43.769Z,0.80
2018-04-07T08:58:10.498Z,3.70
2018-04-07T09:00:37.201Z,0.73
2018-04-07T09:03:03.897Z,2.90
2018-04-07T09:05:30.593Z,2.10
2018-04-07T09:07:57.328Z,1.00
2018-04-07T09:10:24.048Z,2.17
2018-04-07T09:12:50.745Z,1.37
2018-04-07T09:15:17.448Z,1.80
2018-04-07T09:17:44.149Z,0.80
2018-04-07T09:20:10.854Z,0.70
2018-04-07T09:22:37.585Z,1.37
2018-04-07T09:25:04.281Z,0.80
2018-04-07T09:27:30.981Z,0.80
2018-04-07T09:29:57.688Z,0.83
2018-04-07T09:32:24.459Z,1.37
2018-04-07T09:34:51.181Z,1.30
2018-04-07T09:37:17.889Z,1.10
2018-04-07T09:39:44.585Z,2.80
2018-04-07T09:42:11.280Z,1.73
2018-04-07T09:44:37.978Z,1.37
2018-04-07T09:47:04.697Z,1.30
2018-04-07T09:49:31.388Z,4.33
2018-04-07T09:51:58.107Z,1.50
2018-04-07T09:54:25.121Z,1.57
2018-04-07T09:56:51.820Z,2.63
2018-04-07T09:59:18.517Z,2.57
2018-04-07T10:01:45.214Z,4.20
2018-04-07T10:04:11.913Z,1.50
2018-04-07T10:06:38.613Z,1.40
2018-04-07T10:09:06.108Z,1.27
2018-04-07T10:11:32.813Z,0.70
2018-04-07T10:13:59.514Z,1.00
2018-04-07T10:16:26.265Z,1.00
2018-04-07T10:18:52.965Z,0.80
2018-04-07T10:21:19.672Z,0.90
2018-04-07T10:23:46.407Z,1.23
2018-04-07T10:26:13.108Z,1.57
2018-04-07T10:28:39.809Z,2.13
2018-04-07T10:31:06.553Z,2.40
2018-04-07T10:33:33.244Z,1.77
2018-04-07T10:35:59.941Z,5.10
2018-04-07T10:38:26.653Z,5.53
2018-04-07T10:40:53.349Z,1.90
2018-04-07T10:43:20.084Z,2.27
2018-04-07T10:45:46.776Z,2.00
2018-04-07T10:48:13.490Z,2.03
2018-04-07T10:50:40.185Z,1.90
2018-04-07T10:53:06.886Z,2.80
2018-04-07T10:55:33.617Z,1.00
2018-04-07T10:58:00.312Z,2.47
2018-04-07T11:00:27.005Z,1.00
2018-04-07T11:02:53.841Z,1.20
2018-04-07T11:05:20.551Z,3.10
2018-04-07T11:07:47.277Z,2.07
2018-04-07T11:10:13.974Z,2.43
2018-04-07T11:12:40.677Z,4.70
2018-04-07T11:15:07.379Z,4.53
2018-04-07T11:17:34.072Z,0.90
2018-04-07T11:20:00.796Z,1.13
2018-04-07T11:22:27.513Z,2.57
2018-04-07T11:24:54.209Z,1.80
2018-04-07T11:27:20.905Z,1.20
2018-04-07T11:29:47.604Z,1.23
2018-04-07T11:32:14.332Z,0.90
2018-04-07T11:34:41.025Z,2.90
2018-04-07T11:37:07.721Z,0.90
2018-04-07T11:39:34.413Z,0.90
2018-04-07T11:42:01.111Z,1.20
2018-04-07T11:44:27.839Z,1.37
2018-04-07T11:46:54.561Z,4.00
2018-04-07T11:49:21.257Z,1.07
2018-04-07T11:51:47.949Z,1.40
2018-04-07T11:54:14.670Z,3.33
2018-04-07T11:56:41.398Z,1.23
2018-04-07T11:59:08.093Z,1.30
2018-04-07T12:01:34.984Z,1.00
2018-04-07T12:04:01.687Z,2.73
2018-04-07T12:06:28.388Z,1.60
2018-04-07T12:08:55.205Z,1.20
2018-04-07T12:11:21.905Z,2.27
2018-04-07T12:13:48.611Z,2.17
2018-04-07T12:16:15.338Z,0.93
2018-04-07T12:18:42.045Z,3.27
2018-04-07T12:21:08.774Z,3.27
2018-04-07T12:23:35.505Z,2.00
2018-04-07T12:26:02.208Z,2.00
2018-04-07T12:28:29.036Z,3.00
2018-04-07T12:30:55.767Z,1.73
2018-04-07T12:33:22.469Z,1.70
2018-04-07T12:35:49.167Z,0.90
2018-04-07T12:38:15.866Z,1.87
2018-04-07T12:40:42.614Z,1.53
2018-04-07T12:43:09.329Z,3.10
2018-04-07T12:45:36.034Z,3.17
2018-04-07T12:48:02.745Z,1.13
2018-04-07T12:50:29.440Z,1.63
2018-04-07T12:52:56.141Z,2.00
2018-04-07T12:55:22.863Z,1.10
2018-04-07T12:57:49.578Z,3.00
2018-04-07T13:00:16.272Z,1.90
2018-04-07T13:02:42.970Z,1.13
2018-04-07T13:05:09.665Z,2.43
2018-04-07T13:07:36.480Z,3.00
2018-04-07T13:10:03.189Z,2.00
2018-04-07T13:12:29.886Z,1.30
2018-04-07T13:14:56.593Z,1.40
2018-04-07T13:17:23.514Z,0.97
2018-04-07T13:19:50.237Z,2.43
2018-04-07T13:22:16.974Z,1.47
2018-04-07T13:24:43.702Z,1.17
2018-04-07T13:27:10.407Z,1.07
2018-04-07T13:29:37.129Z,0.80
2018-04-07T13:32:03.852Z,1.10
2018-04-07T13:34:30.556Z,2.77
2018-04-07T13:36:57.258Z,1.87
2018-04-07T13:39:23.997Z,3.37
2018-04-07T13:41:50.726Z,1.13
2018-04-07T13:44:17.444Z,1.03
2018-04-07T13:46:44.137Z,0.97
2018-04-07T13:49:10.832Z,1.17
2018-04-07T13:51:37.541Z,1.13
2018-04-07T13:54:04.237Z,1.57
2018-04-07T13:56:30.957Z,1.17
2018-04-07T13:58:57.675Z,1.10
2018-04-07T14:01:24.390Z,3.07
2018-04-07T14:03:51.090Z,2.17
2018-04-07T14:06:17.797Z,1.70
2018-04-07T14:08:44.533Z,0.93
2018-04-07T14:11:11.239Z,3.17
2018-04-07T14:13:37.944Z,3.20
2018-04-07T14:16:04.650Z,0.90
2018-04-07T14:18:31.353Z,1.07
2018-04-07T14:20:58.080Z,2.63
2018-04-07T14:23:24.773Z,1.17
2018-04-07T14:25:51.470Z,0.70
2018-04-07T14:28:18.165Z,2.40
2018-04-07T14:30:44.867Z,3.13
2018-04-07T14:33:11.590Z,0.80
2018-04-07T14:35:38.287Z,1.63
2018-04-07T14:38:04.993Z,2.13
2018-04-07T14:40:31.691Z,1.47
2018-04-07T14:42:58.390Z,0.83
2018-04-07T14:45:25.123Z,3.83
2018-04-07T14:47:51.816Z,2.40
2018-04-07T14:50:18.516Z,1.20
2018-04-07T14:52:45.218Z,3.43
2018-04-07T14:55:11.917Z,3.57
2018-04-07T14:57:38.647Z,1.53
2018-04-07T15:00:05.344Z,0.90
2018-04-07T15:02:32.063Z,2.00
2018-04-07T15:04:58.756Z,2.83
2018-04-07T15:07:25.479Z,2.63
2018-04-07T15:09:52.423Z,2.10
2018-04-07T15:12:19.265Z,2.60
2018-04-07T15:14:45.970Z,3.73
2018-04-07T15:17:12.701Z,2.77
2018-04-07T15:19:39.397Z,1.87
2018-04-07T15:22:06.127Z,1.67
2018-04-07T15:24:32.827Z,3.07
2018-04-07T15:26:59.521Z,2.40
2018-04-07T15:29:26.216Z,1.60
2018-04-07T15:31:52.912Z,2.17
2018-04-07T15:34:19.640Z,2.20
2018-04-07T15:36:46.575Z,2.13
2018-04-07T15:39:13.272Z,1.33
2018-04-07T15:41:39.969Z,1.10
2018-04-07T15:44:06.785Z,3.20
2018-04-07T15:46:33.517Z,3.30
2018-04-07T15:49:00.213Z,2.53
2018-04-07T15:51:26.912Z,2.00
2018-04-07T15:53:53.606Z,2.93
2018-04-07T15:56:20.304Z,3.40
2018-04-07T15:58:47.032Z,1.13
2018-04-07T16:01:14.817Z,1.77
2018-04-07T16:03:41.513Z,1.70
2018-04-07T16:06:08.209Z,3.47
2018-04-07T16:08:34.909Z,2.67
2018-04-07T16:11:01.635Z,1.00
2018-04-07T16:13:28.408Z,4.07
2018-04-07T16:15:55.106Z,3.23
2018-04-07T16:18:21.807Z,1.63
2018-04-07T16:20:48.509Z,4.00
2018-04-07T16:23:15.236Z,3.97
2018-04-07T16:25:41.939Z,1.30
2018-04-07T16:28:08.641Z,3.20
2018-04-07T16:30:35.337Z,3.67
2018-04-07T16:33:02.041Z,2.87
2018-04-07T16:35:28.745Z,3.47
2018-04-07T16:37:55.441Z,3.70
2018-04-07T16:40:22.136Z,5.37
2018-04-07T16:42:48.837Z,3.60
2018-04-07T16:45:15.592Z,2.50
2018-04-07T16:47:42.289Z,3.57
2018-04-07T16:50:08.993Z,2.93
2018-04-07T16:52:35.774Z,2.63
2018-04-07T16:55:02.451Z,3.00
2018-04-07T16:57:29.147Z,2.70
2018-04-07T16:59:55.868Z,2.93
2018-04-07T17:02:22.563Z,4.33
2018-04-07T17:04:49.260Z,3.90
2018-04-07T17:07:15.952Z,3.23
2018-04-07T17:09:42.652Z,2.63
2018-04-07T17:12:09.378Z,4.10
2018-04-07T17:14:36.074Z,2.80
2018-04-07T17:17:03.005Z,2.73
2018-04-07T17:19:29.705Z,4.30
2018-04-07T17:21:56.403Z,3.67
2018-04-07T17:24:23.136Z,4.37
2018-04-07T17:26:49.836Z,2.53
2018-04-07T17:29:16.545Z,4.93
2018-04-07T17:31:43.257Z,3.80
2018-04-07T17:34:10.025Z,2.90
2018-04-07T17:36:36.689Z,3.70
2018-04-07T17:39:03.403Z,2.97
2018-04-07T17:41:30.129Z,3.37
2018-04-07T17:43:56.829Z,4.47
2018-04-07T17:46:23.524Z,3.20
2018-04-07T17:48:50.420Z,2.23
2018-04-07T17:51:17.119Z,1.53
2018-04-07T17:53:43.841Z,1.77
2018-04-07T17:56:10.537Z,4.43
2018-04-07T17:58:37.229Z,4.07
2018-04-07T18:01:03.941Z,3.20
2018-04-07T18:03:30.640Z,6.43
2018-04-07T18:05:57.362Z,2.83
2018-04-07T18:08:24.072Z,4.77
2018-04-07T18:10:50.771Z,3.33
2018-04-07T18:13:17.468Z,4.13
2018-04-07T18:15:44.168Z,3.43
2018-04-07T18:18:10.892Z,3.33
2018-04-07T18:20:37.611Z,6.23
2018-04-07T18:23:04.321Z,3.40
2018-04-07T18:25:31.021Z,4.77
2018-04-07T18:27:57.748Z,4.30
2018-04-07T18:30:24.469Z,5.57
2018-04-07T18:32:51.173Z,2.90
2018-04-07T18:35:17.881Z,3.93
2018-04-07T18:37:44.581Z,3.97
2018-04-07T18:40:11.296Z,4.90
2018-04-07T18:42:38.053Z,4.80
2018-04-07T18:45:04.758Z,4.07
2018-04-07T18:47:31.453Z,4.07
2018-04-07T18:49:58.177Z,5.80
2018-04-07T18:52:24.874Z,5.27
2018-04-07T18:54:51.597Z,2.70
2018-04-07T18:57:18.423Z,3.93
2018-04-07T18:59:45.112Z,3.83
2018-04-07T19:02:11.812Z,4.13
2018-04-07T19:04:38.504Z,4.40
2018-04-07T19:07:05.278Z,4.50
2018-04-07T19:09:31.973Z,9.50
2018-04-07T19:11:58.669Z,4.60
2018-04-07T19:14:25.365Z,4.23
2018-04-07T19:16:52.240Z,1.83
2018-04-07T19:19:18.968Z,6.87
2018-04-07T19:21:45.669Z,4.20
2018-04-07T19:24:12.373Z,4.93
2018-04-07T19:26:39.077Z,5.27
2018-04-07T19:29:05.774Z,3.90
2018-04-07T19:31:32.498Z,3.50
2018-04-07T19:33:59.198Z,4.63
2018-04-07T19:36:25.894Z,6.20
2018-04-07T19:38:52.590Z,5.97
2018-04-07T19:41:19.413Z,5.77
2018-04-07T19:43:46.166Z,2.07
2018-04-07T19:46:12.865Z,5.43
2018-04-07T19:48:39.557Z,3.63
2018-04-07T19:51:06.337Z,4.40
2018-04-07T19:53:33.037Z,6.03
2018-04-07T19:55:59.771Z,5.30
2018-04-07T19:58:26.502Z,4.97
2018-04-07T20:00:53.197Z,6.93
2018-04-07T20:03:19.901Z,5.37
2018-04-07T20:05:46.601Z,4.37
2018-04-07T20:08:13.325Z,7.17
2018-04-07T20:10:40.035Z,11.23
2018-04-07T20:13:06.737Z,4.43
2018-04-07T20:15:33.443Z,4.43
2018-04-07T20:18:00.140Z,4.83
2018-04-07T20:20:28.739Z,6.40
2018-04-07T20:22:56.062Z,6.07
2018-04-07T20:25:22.770Z,5.43
2018-04-07T20:27:49.463Z,5.50
2018-04-07T20:30:16.161Z,7.13
2018-04-07T20:32:42.885Z,2.67
2018-04-07T20:35:09.592Z,10.30
2018-04-07T20:37:36.289Z,7.73
2018-04-07T20:40:02.994Z,4.83
2018-04-07T20:42:29.692Z,4.20
2018-04-07T20:44:56.420Z,8.53
2018-04-07T20:47:23.349Z,4.67
2018-04-07T20:49:50.047Z,7.90
2018-04-07T20:52:16.758Z,4.47
2018-04-07T20:54:43.494Z,6.23
2018-04-07T20:57:10.429Z,2.93
2018-04-07T20:59:37.128Z,5.57
2018-04-07T21:02:03.826Z,8.60
2018-04-07T21:04:30.539Z,3.93
2018-04-07T21:06:57.253Z,2.40
2018-04-07T21:09:23.978Z,6.93
2018-04-07T21:11:50.677Z,7.10
2018-04-07T21:14:17.376Z,6.67
2018-04-07T21:16:44.073Z,3.57
2018-04-07T21:19:10.776Z,5.97
2018-04-07T21:21:38.356Z,5.73
2018-04-07T21:24:05.049Z,5.97
2018-04-07T21:26:31.741Z,3.60
2018-04-07T21:28:58.436Z,6.67
2018-04-07T21:31:25.136Z,4.93
2018-04-07T21:33:51.861Z,5.60
2018-04-07T21:36:18.557Z,5.10
2018-04-07T21:38:45.253Z,5.33
2018-04-07T21:41:11.956Z,4.23
2018-04-07T21:43:38.657Z,7.07
2018-04-07T21:46:05.534Z,8.00
2018-04-07T21:48:32.238Z,7.27
2018-04-07T21:50:58.943Z,7.90
2018-04-07T21:53:25.663Z,5.03
2018-04-07T21:55:52.594Z,5.77
2018-04-07T21:58:19.326Z,5.67
2018-04-07T22:00:46.017Z,4.67
2018-04-07T22:03:12.718Z,6.07
2018-04-07T22:05:39.417Z,5.30
2018-04-07T22:08:06.112Z,7.90
2018-04-07T22:10:32.844Z,4.30
2018-04-07T22:12:59.544Z,3.67
2018-04-07T22:15:26.247Z,7.47
2018-04-07T22:17:52.942Z,8.00
2018-04-07T22:20:19.632Z,4.00
2018-04-07T22:22:46.365Z,5.43
2018-04-07T22:25:13.062Z,6.40
2018-04-07T22:27:40.002Z,2.73
2018-04-07T22:30:06.697Z,6.00
2018-04-07T22:32:33.393Z,4.97
2018-04-07T22:35:00.087Z,8.00
2018-04-07T22:37:26.801Z,6.03
2018-04-07T22:39:53.520Z,6.60
2018-04-07T22:42:20.225Z,6.50
2018-04-07T22:44:46.925Z,4.93
2018-04-07T22:47:13.630Z,7.33
2018-04-07T22:49:40.324Z,7.07
2018-04-07T22:52:07.045Z,5.30
2018-04-07T22:54:33.745Z,4.97
2018-04-07T22:57:00.441Z,4.90
2018-04-07T22:59:27.167Z,4.97
2018-04-07T23:01:53.868Z,6.33
2018-04-07T23:04:20.592Z,7.97
2018-04-07T23:06:47.289Z,7.63
2018-04-07T23:09:14.005Z,5.93
2018-04-07T23:11:40.712Z,5.10
2018-04-07T23:14:07.407Z,6.67
2018-04-07T23:16:34.118Z,4.40
2018-04-07T23:19:00.827Z,5.27
2018-04-07T23:21:27.530Z,4.67
2018-04-07T23:23:54.231Z,7.60
2018-04-07T23:26:20.985Z,5.33
2018-04-07T23:28:47.685Z,4.90
2018-04-07T23:31:14.376Z,5.77
2018-04-07T23:33:41.105Z,6.13
2018-04-07T23:36:07.811Z,5.80
2018-04-07T23:38:34.509Z,5.00
2018-04-07T23:41:01.233Z,4.53
2018-04-07T23:43:27.953Z,6.47
2018-04-07T23:45:54.769Z,3.33
2018-04-07T23:48:21.467Z,5.43
2018-04-07T23:50:48.156Z,3.67
2018-04-07T23:53:14.889Z,5.50
2018-04-07T23:55:41.588Z,5.67
2018-04-07T23:58:08.290Z,7.47
